Miles Wright

Recruteur en chef - Orlando City
10 Déc 2028
Dimanche
Processus

Personnalité

Adaptabilité (3) Ambition (17) Controverse (6) Loyauté (9) Pression (10) Professionnalisme (14) Sportivité (9) Tempérament (4)

Profil

Style d'entraînement Démocratique
Diplôme National A
Détermination 9
Gestion des joueurs 7
Motivation 11
Discipline 8
Satisfaction professionnelle
100%
Fatigue
0%
Rôle Recruteur en chef
Salaire 90.6K p/s
Contrat 14.03.2029

Performance

Comportement Bon
Efficacité de l'entraînement
44%
Développement des joueurs
30%
Prévention des blessures
45%
Mise en place tactique
40%

Événements récents

A recommandé une cible de transfert maintenant
A recommandé une cible de transfert maintenant
A recommandé une cible de transfert maintenant
A recommandé une cible de transfert maintenant
A recommandé une cible de transfert maintenant
A recommandé une cible de transfert maintenant
A évalué un joueur maintenant
A évalué un joueur maintenant

Suivi en cours

231
Joueur Club Statut Capacité Confiance Observé Dernière observation Dernier vote
Tyler Fletcher Rotherham United Actif 119 / 128 40% 6 09.12.2028 -
Estanislao López Colón Actif 98 / 102 40% 4 09.12.2028 -
Aidan Borland Espanyol Actif 112 / 123 40% 1 09.12.2028 -
Honest Ahanor Atalanta Actif 142 / 146 40% 14 07.12.2028 -
Celías Ingenthron Platense Actif 116 / 127 40% 8 07.12.2028 -
Tiago Gordillo San Miguel Actif 87 / 87 40% 3 07.12.2028 -
Joel Ezra Enyimba Actif 97 / 100 40% 9 06.12.2028 -
Daniel Banjaqui Benfica Actif 129 / 139 40% 3 06.12.2028 -
Peyton Miller New England Revolution Actif 116 / 116 40% 6 06.12.2028 -
Ayyoub Bouaddi Stoke City Actif 155 / 154 40% 10 05.12.2028 -
Rhys Chadwick Blackpool Actif 108 / 115 40% 4 05.12.2028 -
Mateo Faure BATE Actif 94 / 102 40% 3 05.12.2028 -
Trey Nyoni Rotherham United Actif 147 / 153 40% 15 03.12.2028 -
Diego León Rotherham United Actif 130 / 129 40% 7 03.12.2028 -
Francisco Machis Llaneros Actif 92 / 97 40% 9 01.12.2028 -
Harrison Armstrong Ipswich Town Actif 139 / 142 40% 7 01.12.2028 -
Máximo Munarriz San Telmo Actif 95 / 108 40% 7 30.11.2028 -
Sebastian Rodriguez Houston Dynamo Actif 115 / 131 40% 9 29.11.2028 -
Jan Cedilnik Chikhura Actif 82 / 89 40% 4 29.11.2028 -
Calvin Diakite Chesterfield Actif 91 / 102 40% 5 25.11.2028 -
Josh King Newcastle United Actif 146 / 158 40% 4 25.11.2028 -
Chris Rigg West Ham United Actif 143 / 143 40% 13 24.11.2028 -
Abubakar Adams Aduana Stars Actif 89 / 104 40% 6 21.11.2028 -
Riquelme Thompson-Jones Accrington Stanley Actif 116 / 117 40% 4 20.11.2028 -
Louis Page Leicester City Actif 133 / 141 40% 5 19.11.2028 -
Gideon Manaseh Ikorodu City Actif 101 / 109 40% 9 18.11.2028 -
Giovanni Leoni Lincoln City Actif 143 / 152 40% 11 18.11.2028 -
Ronan Kpakio AC Milan Actif 128 / 131 40% 4 18.11.2028 -
Veljko Milosavljević Bournemouth Actif 153 / 158 40% 4 15.11.2028 -
Christos Mouzakitis Hull City Actif 143 / 151 40% 4 12.11.2028 -
Aytor Herrera Mineros de Guayana Actif 94 / 90 40% 7 12.11.2028 -
Óscar Hinojosa Metropolitanos Actif 90 / 87 40% 3 10.11.2028 -
Ezra Mayers West Ham United Actif 131 / 133 40% 5 25.10.2028 -
Onyeuche Ujunwa Ikorodu City Actif 92 / 98 40% 4 23.10.2028 -
Joachim Kayi Sanda Southampton Actif 128 / 133 40% 1 23.10.2028 -
Tobías Ramírez River Plate Actif 127 / 124 40% 7 21.10.2028 -
Jim Thwaites Manchester United Actif 117 / 124 40% 2 19.10.2028 -
Moses Sesay Southampton Actif 116 / 122 40% 2 17.10.2028 -
Lautaro Dufur Juventud Actif 109 / 110 40% 3 10.10.2028 -
Felipe Varela Trujillanos Actif 94 / 101 40% 5 28.09.2028 -
Nazif Abdullahi Nasarawa United Actif 76 / 82 40% 1 26.09.2028 -
Lucas Camejo River Plate Actif 80 / 95 40% 6 21.09.2028 -
Connor Yedlin Columbus Crew Refusé 45 / 53 83% 1 / 1m 16.09.2028 Refuser
Mark Morris Columbus Crew Refusé 46 / 52 83% 1 / 1m 16.09.2028 Refuser
DeAndre Moore Columbus Crew Refusé 57 / 65 83% 1 / 1m 16.09.2028 Refuser
Adam Robinson Columbus Crew Refusé 53 / 60 83% 1 / 1m 16.09.2028 Refuser
David Tillman Columbus Crew Refusé 43 / 51 83% 1 / 1m 16.09.2028 Refuser
Matt Morris Columbus Crew Refusé 41 / 51 83% 1 / 1m 16.09.2028 Refuser
Connor Reyna Columbus Crew Refusé 58 / 69 83% 1 / 1m 16.09.2028 Refuser
Anderson Acevedo Bogota Actif 85 / 100 40% 1 16.09.2028 -
Bade Aluko Leicester City Actif 127 / 128 40% 1 07.09.2028 -
Thijs Kraaijeveld USM Alger Actif 123 / 120 40% 1 30.08.2028 -
Kwesi Sorotu Badori Berekum Chelsea Actif 99 / 102 40% 2 29.08.2028 -
Simone Suppa Virtus Verona Actif 87 / 94 40% 1 20.08.2028 -
Ayden Heaven Portsmouth Actif 150 / 151 40% 3 17.08.2028 -
Nicolò Moranduzzo Renate Actif 100 / 101 40% 1 11.08.2028 -
Kamaldeen Atiemo Wa All Stars Actif 103 / 103 40% 2 09.08.2028 -
Hosea Michael Remo Stars Actif 93 / 89 40% 2 09.08.2028 -
Miguel Figueiredo Benfica Actif 127 / 130 40% 1 09.08.2028 -
Martim Cunha Porto Actif 116 / 113 40% 3 31.07.2028 -
Ahmed Zaki Masr El Makasa Négociation 77 / 88 40% 1 31.07.2028 -
Jan Bürger Northampton Town Actif 126 / 127 40% 3 17.07.2028 -
Dmytro Strilchuk Podillia Actif 90 / 93 40% 1 06.07.2028 -
Amine Boukamir Charleroi Actif 112 / 118 40% 1 05.07.2028 -
Emil Ceïde Bodo/Glimt Actif 123 / 124 66% 1 14.02.2028 Approuver
Mateusz Kochalski Red Bull Salzburg Actif 130 / 130 66% 1 14.02.2028 Approuver
Alexandru Stanciu Braga Actif 138 / 138 66% 1 14.02.2028 Approuver
Ben Broggio Mansfield Town Actif 109 / 118 40% 2 13.02.2028 -
Josh Nichols Oldham Athletic Actif 123 / 128 40% 4 12.02.2028 -
Amin Nabizada Exeter City Actif 106 / 120 40% 1 12.02.2028 -
Babis Kostoulas Oxford United Actif 146 / 142 40% 3 10.02.2028 -
Romelle Donovan Brentford Actif 131 / 135 40% 3 10.02.2028 -
Leo Pecover Swindon Town Actif 96 / 102 40% 1 10.02.2028 -
Siyabonga Mabena Bidvest Wits Actif 117 / 122 40% 4 09.02.2028 -
Josh Acheampong Everton Actif 138 / 142 40% 3 09.02.2028 -
Nana Nuhu WAFA Actif 101 / 108 40% 2 09.02.2028 -
Ryan McAidoo Oldham Athletic Actif 124 / 137 40% 1 07.02.2028 -
Ruben Ramos LA Galaxy Actif 101 / 101 40% 1 04.02.2028 -
Omar Khedr Gillingham Actif 108 / 112 40% 1 04.02.2028 -
Sindre Walle Egeli Udinese Actif 142 / 137 40% 3 03.02.2028 -
Lwanda Mbanjwa Platinum Stars Actif 106 / 108 40% 1 03.02.2028 -
Igor Tyjon Barrow AFC Actif 108 / 121 40% 3 01.02.2028 -
Esquerdinha Notts County Actif 121 / 131 40% 5 31.01.2028 -
Rio Ngumoha Plymouth Argyle Actif 142 / 149 40% 2 31.01.2028 -
Luca Williams-Barnett Walsall Actif 118 / 137 40% 3 28.01.2028 -
Shea Lacey Crystal Palace Actif 131 / 138 40% 1 26.01.2028 -
Alex Verón Vélez Actif 121 / 130 40% 3 25.01.2028 -
Pedro Baltika Actif 147 / 130 40% 1 25.01.2028 -
Matías Arias Vélez Actif 113 / 124 40% 1 25.01.2028 -
Bazoumana Touré Newcastle United Actif 147 / 155 40% 3 21.01.2028 -
Oscar Schwartau Norwich City Actif 126 / 130 40% 2 17.01.2028 -
Eli Junior Kroupi Bournemouth Actif 144 / 155 40% 1 10.01.2028 -
Mateus Mané Burnley Actif 138 / 146 40% 2 08.01.2028 -
Jeremías Merlo Gimnasia La Plata Actif 128 / 127 40% 1 08.01.2028 -
Gabe Forsyth Colchester United Actif 109 / 121 40% 1 06.01.2028 -
Valentino Acuña Newell's Old Boys Actif 117 / 123 40% 1 06.01.2028 -
Seb Ferdinand Rotherham United Actif 113 / 118 40% 1 02.01.2028 -
Emmanuel Ndubueze Shooting Stars Actif 86 / 105 40% 1 01.01.2028 -
Matias Siltanen Malmo FF Actif 126 / 121 40% 6 25.12.2027 -
Daniel Idoko Ikorodu City Actif 99 / 84 40% 2 24.12.2027 -
Caleb Yirenkyi Coventry City Actif 136 / 147 40% 1 24.12.2027 -
Victor Hernandez Santa Fe Actif 114 / 129 40% 3 23.12.2027 -
Olaniyi Saheed Kwara United Actif 95 / 93 40% 1 23.12.2027 -
David Damboama El-Kanemi Warriors Actif 84 / 91 40% 4 22.12.2027 -
Lucas Bergvall Tottenham Actif 153 / 162 40% 2 22.12.2027 -
Charlie Gray Fleetwood Town Actif 95 / 108 40% 1 22.12.2027 -
Archie Gray Southampton Actif 150 / 152 40% 2 19.12.2027 -
Zane Albarus Shrewsbury Town Actif 104 / 106 40% 2 13.12.2027 -
Antonio Galeano Remo Stars Actif 120 / 116 40% 7 08.12.2027 -
Liel Abada Inter Miami CF Actif 135 / 144 40% 3 08.12.2027 -
Manuel Mónaco Sarmiento Actif 114 / 123 40% 4 05.12.2027 -
Santiago Montiel Independiente Actif 126 / 120 40% 2 05.12.2027 -
Talles Magno New York City Actif 135 / 126 40% 9 02.12.2027 -
Alexis Cuello San Lorenzo Actif 129 / 117 40% 1 30.11.2027 -
Aarón Molinas Defensa y Justicia Actif 133 / 116 40% 1 30.11.2027 -
Antony Portland Timbers Actif 131 / 132 40% 4 25.11.2027 -
Facundo Mura Inter Miami CF Actif 128 / 132 40% 4 25.11.2027 -
Brian Farioli Estudiantes Actif 112 / 116 40% 5 25.11.2027 -
Ben Gannon Doak Charlton Athletic Actif 150 / 148 40% 3 23.11.2027 -
Quinn Sullivan Philadelphia Union Actif 126 / 119 40% 4 21.11.2027 -
David Da Costa Portland Timbers Actif 129 / 129 40% 5 15.11.2027 -
Alex Luna Instituto Actif 131 / 131 40% 1 14.11.2027 -
Luca Langoni Columbus Crew Actif 132 / 140 40% 2 13.11.2027 -
Esteban Obregón Montevideo City Torque Actif 130 / 127 40% 2 13.11.2027 -
Cheikh Sabaly Vancouver Whitecaps Actif 127 / 128 40% 4 11.11.2027 -
Adrian Skogmar Malmo FF Actif 105 / 122 40% 1 10.11.2027 -
Telasco Segovia Inter Miami CF Actif 138 / 129 40% 6 09.11.2027 -
Imran Oulad Omar Dinamo Batumi Actif 122 / 132 40% 4 07.11.2027 -
Jesus Ferreira Seattle Sounders Actif 130 / 132 40% 4 02.11.2027 -
Somtochuwku Ezenabo Kwara United Actif 92 / 87 40% 1 27.10.2027 -
Rhys Walters Port Vale Actif 107 / 120 40% 1 26.10.2027 -
Rodrigo González Mitre Actif 117 / 126 40% 3 22.10.2027 -
Bénie Traoré New York City Actif 123 / 121 40% 3 14.10.2027 -
Juan Bisanz Huracán Actif 138 / 136 40% 4 13.10.2027 -
José Barreto Quilmes Actif 125 / 114 40% 1 12.10.2027 -
Alejo Cruz Juventud Actif 114 / 130 40% 1 09.10.2027 -
Issa Yusuf Shooting Stars Actif 86 / 88 40% 1 09.10.2027 -
Ivan Borges Defensores Actif 74 / 78 40% 1 09.10.2027 -
Franco Vedoya Central Norte Actif 120 / 125 40% 2 05.10.2027 -
Giorgi Arabidze Torpedo Kutaisi Actif 110 / 119 40% 1 02.10.2027 -
Morgan Guilavogui Real Salt Lake Actif 126 / 127 40% 1 29.09.2027 -
Anders Dreyer San Diego Football Club Actif 135 / 127 40% 2 25.09.2027 -
Patricio Moyano Defensores Actif 129 / 117 40% 2 18.09.2027 -
Luka Vušković Tottenham Actif 150 / 151 40% 1 18.09.2027 -
Bruno Leyes Godoy Cruz Actif 135 / 125 40% 1 16.09.2027 -
Jonás Luna Wanderers Actif 116 / 128 40% 1 14.09.2027 -
Godwin Oham Warri Wolves Actif 85 / 83 40% 1 14.09.2027 -
Malick Yalcouyé Brighton Actif 132 / 129 40% 1 14.09.2027 -
Santiago Rodríguez Columbus Crew Actif 136 / 132 40% 2 12.09.2027 -
Martín Campos Ferro Carril Oeste Actif 114 / 127 40% 1 12.09.2027 -
Zane Monlouis Toronto FC Actif 96 / 107 76% 1 19.07.2027 Approuver
Johannes Eggestein Orlando City Actif 125 / 125 68% 1 08.07.2027 Approuver
Oleh Ocheretko FC Dallas Actif 129 / 131 67% 1 08.07.2027 Approuver
Alex Scott Bournemouth Actif 147 / 145 40% 1 16.02.2027 -
Callum Hudson-Odoi Nottingham Forest Actif 151 / 154 40% 1 16.02.2027 -
Harry Clarke Preston Actif 132 / 126 40% 1 16.02.2027 -
Joe Gelhardt Hull City Actif 132 / 137 40% 2 13.02.2027 -
Tomáš Rigo Stoke City Actif 137 / 126 40% 1 12.02.2027 -
Mohamed-Ali Cho Hull City Actif 141 / 129 40% 1 12.02.2027 -
Chemsdine Talbi Sunderland Actif 148 / 148 40% 1 12.02.2027 -
Amine Adli Bournemouth Actif 139 / 143 40% 2 11.02.2027 -
Matt O'Riley Brighton Actif 139 / 147 40% 1 11.02.2027 -
David Ozoh Derby County Actif 117 / 131 40% 1 11.02.2027 -
Bongani Zungu Ajax Cape Town Actif 123 / 121 40% 3 09.02.2027 -
Jacob Greaves Ipswich Town Actif 137 / 131 40% 1 09.02.2027 -
Juanlu Bournemouth Actif 150 / 144 40% 1 09.02.2027 -
Amin Sarr Hellas Verona Actif 126 / 126 40% 2 06.02.2027 -
Nicolò Zaniolo Udinese Actif 147 / 138 40% 2 06.02.2027 -
Kirill Glebov CSKA Moscow Actif 120 / 140 40% 4 05.02.2027 -
Ilyas Ansah Hull City Actif 127 / 137 40% 1 05.02.2027 -
Danilo Veiga Lecce Actif 119 / 121 40% 1 05.02.2027 -
Maicon Levski Actif 123 / 117 40% 1 05.02.2027 -
Pedro Henrique Shakhtar Actif 144 / 129 40% 1 04.02.2027 -
Alex Bangura Middlesbrough Actif 130 / 119 40% 1 04.02.2027 -
Billy Gilmour Napoli Actif 152 / 150 40% 1 01.02.2027 -
Odilon Kossounou Atalanta Actif 146 / 147 40% 1 31.01.2027 -
Tommaso Pobega Bologna Actif 142 / 132 40% 1 31.01.2027 -
Sergey Pinyaev Lokomotiv Moscow Actif 121 / 138 40% 2 28.01.2027 -
Marquinhos Spartak Moscow Actif 131 / 134 40% 10 28.01.2027 -
Raoul Bellanova Atalanta Actif 151 / 155 40% 3 28.01.2027 -
Nazar Voloshyn Dynamo Kyiv Actif 124 / 120 40% 1 23.01.2027 -
Álex Centelles Levski Actif 131 / 120 40% 1 22.01.2027 -
Alessio Zerbin Frosinone Actif 138 / 134 40% 2 21.01.2027 -
Marcelo Allende Mamelodi Sundowns Actif 140 / 126 40% 4 20.01.2027 -
Giacomo Raspadori Atalanta Actif 144 / 152 40% 1 20.01.2027 -
Petar Stanić Ludogorets Actif 147 / 123 40% 12 19.01.2027 -
Martin Baturina Como Actif 138 / 134 40% 1 15.01.2027 -
Esequiel Barco Spartak Moscow Actif 133 / 143 40% 2 09.01.2027 -
Reda Khadra Qarabag Actif 129 / 124 40% 6 08.01.2027 -
Manu Morlanes Mallorca Actif 143 / 140 40% 4 31.12.2026 -
Tyrhys Dolan Espanyol Actif 143 / 137 40% 6 31.12.2026 -
Jens Petter Hauge Bodo/Glimt Actif 138 / 144 40% 6 30.12.2026 -
Jay Stansfield Birmingham Actif 131 / 129 40% 2 28.12.2026 -
Mathys Tel Tottenham Actif 138 / 149 40% 4 27.12.2026 -
Gedson Fernandes Spartak Moscow Actif 136 / 146 40% 4 26.12.2026 -
Danil Glebov Dinamo Moscow Actif 129 / 136 40% 3 26.12.2026 -
Aldair Faustino Levski Actif 117 / 118 40% 1 22.12.2026 -
Arne Maier Ujpest Actif 119 / 122 40% 1 21.12.2026 -
Femi Seriki Sheffield United Actif 125 / 135 40% 1 21.12.2026 -
Harvey Vale Queens Park Rangers Actif 125 / 119 40% 1 17.12.2026 -
Nikita Krivtsov Krasnodar Actif 133 / 141 40% 1 17.12.2026 -
Alexandr Chernikov Krasnodar Actif 126 / 121 40% 2 16.12.2026 -
Maxim De Cuyper Brighton Actif 136 / 144 40% 3 15.12.2026 -
James Eto'o CSKA Sofia Actif 134 / 126 40% 1 09.12.2026 -
Oliver Arblaster Sheffield United Actif 129 / 125 40% 1 09.12.2026 -
Ammar Ramadan DAC Dunajska Streda Actif 136 / 110 40% 1 09.12.2026 -
Wilson Odobert Brighton Actif 145 / 136 40% 1 27.11.2026 -
Odin Bjørtuft Bodo/Glimt Actif 138 / 120 40% 1 03.11.2026 -
Diego Gómez Brighton Actif 141 / 151 40% 4 01.11.2026 -
Diego Luna Real Salt Lake Actif 124 / 122 40% 2 01.11.2026 -
Joaquín Pereyra Minnesota United FC Actif 127 / 127 40% 1 23.10.2026 -
Ole-Didrik Blomberg Bodo/Glimt Actif 135 / 118 40% 1 13.10.2026 -
Rubens Dinamo Moscow Actif 120 / 132 40% 1 10.10.2026 -
Andrés Herrera Columbus Crew Actif 129 / 119 40% 2 07.10.2026 -
Nicolás Romero Minnesota United FC Actif 126 / 138 40% 3 06.10.2026 -
Gonzalo Luján Inter Miami CF Actif 124 / 115 40% 2 06.10.2026 -
Ho-yeon Jung Minnesota United FC Actif 128 / 116 40% 2 05.10.2026 -
Emil Breivik Molde Actif 136 / 135 40% 2 05.10.2026 -
Lukas Engel Real Salt Lake Actif 120 / 121 40% 2 25.09.2026 -
Rui Modesto Vancouver Whitecaps Actif 119 / 114 40% 2 25.09.2026 -
Cole Bassett Portland Timbers Actif 127 / 113 40% 2 19.09.2026 -
Tomáš Nemčík Rosenborg Actif 131 / 131 40% 1 19.09.2026 -
Iliya Gruev Leeds United Actif 124 / 129 40% 1 19.09.2026 -
Japhet Sery Larsen Philadelphia Union Actif 128 / 125 40% 1 18.09.2026 -
Juan Manuel Sanabria Real Salt Lake Actif 126 / 125 40% 2 17.09.2026 -
Juan Mosquera Portland Timbers Actif 121 / 132 40% 1 17.09.2026 -
Lucas Sanabria LA Galaxy Actif 123 / 132 40% 1 16.09.2026 -
Jordan Lotomba Bloemfontein Celtic Actif 113 / 124 40% 1 14.09.2026 -
Owen Beck Liverpool Actif 126 / 131 40% 1 14.09.2026 -
Nectar Triantis Minnesota United FC Actif 127 / 130 40% 1 13.09.2026 -
Alhassan Yusuf New England Revolution Actif 125 / 134 40% 1 12.09.2026 -